Time;durP1;ratioP1;P1;durP2;ratioP2;P2;SDS_P1;SDS_P2;PMS_P1;PMS_P2;Temp;Humidity;BMP_temperature;BMP_pressure;BME280_temperature;BME280_humidity;BME280_pressure;Samples;Min_cycle;Max_cycle;Signal;HPM_P1;HPM_P2
2023/01/11 00:00:05;;;;;;;9.38;3.55;;;5.20;99.90;;;;;;5069192;28;20825;-86
2023/01/11 00:02:33;;;;;;;13.93;4.93;;;5.30;99.90;;;;;;5072251;28;21018;-86
2023/01/11 00:04:59;;;;;;;9.80;3.90;;;5.30;99.90;;;;;;5090442;28;20928;-88
2023/01/11 00:07:24;;;;;;;11.07;4.00;;;5.30;99.90;;;;;;5088610;28;20381;-87
2023/01/11 00:09:50;;;;;;;11.32;3.83;;;5.30;99.90;;;;;;5090832;28;20883;-88
2023/01/11 00:12:16;;;;;;;13.30;4.37;;;5.30;99.90;;;;;;5090089;28;20384;-88
2023/01/11 00:14:41;;;;;;;10.53;4.20;;;5.30;99.90;;;;;;5091257;28;20368;-88
2023/01/11 00:17:07;;;;;;;9.50;4.05;;;5.30;99.90;;;;;;5077109;28;20399;-88
2023/01/11 00:19:33;;;;;;;10.18;3.88;;;5.30;99.90;;;;;;5060640;28;20743;-86
2023/01/11 00:21:59;;;;;;;10.80;4.20;;;5.30;99.90;;;;;;5058938;28;20860;-89
2023/01/11 00:24:24;;;;;;;9.77;4.05;;;5.30;99.90;;;;;;5070322;28;20404;-88
2023/01/11 00:26:50;;;;;;;11.40;4.50;;;5.30;99.90;;;;;;5057649;28;20376;-86
2023/01/11 00:29:16;;;;;;;11.40;4.10;;;5.40;99.90;;;;;;5066222;28;20391;-87
2023/01/11 00:31:41;;;;;;;9.63;3.83;;;5.30;99.90;;;;;;5050983;28;20434;-89
2023/01/11 00:34:07;;;;;;;9.43;3.90;;;5.40;99.90;;;;;;5048973;28;20380;-86
2023/01/11 00:36:33;;;;;;;9.93;3.77;;;5.50;99.90;;;;;;5054812;28;20435;-87
2023/01/11 00:39:00;;;;;;;8.88;3.78;;;5.50;99.90;;;;;;5068986;28;20433;-87
2023/01/11 00:49:40;;;;;;;9.95;3.95;;;5.50;99.90;;;;;;5080368;28;20408;-87
2023/01/11 00:52:07;;;;;;;9.65;4.20;;;5.50;99.90;;;;;;5086465;28;20392;-84
2023/01/11 00:54:36;;;;;;;9.93;3.72;;;5.40;99.90;;;;;;5089355;28;20385;-84
2023/01/11 00:57:03;;;;;;;9.98;3.97;;;5.50;99.90;;;;;;5088489;27;20400;-86
2023/01/11 00:59:29;;;;;;;13.10;4.03;;;5.50;99.90;;;;;;5087587;28;20399;-88
2023/01/11 01:01:54;;;;;;;13.27;4.30;;;5.50;99.90;;;;;;5083087;28;20923;-86
2023/01/11 01:04:20;;;;;;;9.77;3.50;;;5.50;99.90;;;;;;5088282;28;20869;-86
2023/01/11 01:06:46;;;;;;;13.65;4.30;;;5.50;99.90;;;;;;5083230;28;20407;-87
2023/01/11 01:09:11;;;;;;;11.25;3.97;;;5.50;99.90;;;;;;5059548;28;20398;-88
2023/01/11 01:11:37;;;;;;;10.80;3.90;;;5.50;99.90;;;;;;5069478;28;20390;-86
2023/01/11 01:16:48;;;;;;;10.53;4.20;;;5.40;99.90;;;;;;5069966;28;20405;-87
2023/01/11 01:19:14;;;;;;;8.85;3.55;;;5.40;99.90;;;;;;5069501;28;20473;-89
2023/01/11 01:21:39;;;;;;;10.67;3.80;;;5.40;99.90;;;;;;5085768;28;20465;-88
2023/01/11 01:24:05;;;;;;;12.40;4.30;;;5.40;99.90;;;;;;5073233;28;20398;-85
2023/01/11 01:26:31;;;;;;;9.57;3.95;;;5.40;99.90;;;;;;5076412;28;20380;-86
2023/01/11 01:28:57;;;;;;;15.90;4.23;;;5.30;99.90;;;;;;5071006;28;20379;-85
2023/01/11 01:31:22;;;;;;;12.05;4.20;;;5.30;99.90;;;;;;5071176;28;20374;-88
2023/01/11 01:33:48;;;;;;;10.00;4.10;;;5.40;99.90;;;;;;5069903;28;20385;-87
2023/01/11 01:36:14;;;;;;;15.17;4.50;;;5.40;99.90;;;;;;5070093;28;20844;-88
2023/01/11 01:38:39;;;;;;;11.00;3.90;;;5.30;99.90;;;;;;5067951;28;20401;-87
2023/01/11 01:41:05;;;;;;;11.52;4.32;;;5.30;99.90;;;;;;5070561;28;20442;-87
2023/01/11 01:43:52;;;;;;;11.20;3.63;;;5.30;99.90;;;;;;5069457;28;20378;-87
2023/01/11 01:46:20;;;;;;;11.23;4.22;;;5.20;99.90;;;;;;5070250;28;20370;-87
2023/01/11 01:48:51;;;;;;;12.32;4.10;;;5.20;99.90;;;;;;5068737;28;20374;-84
2023/01/11 01:51:24;;;;;;;11.00;4.03;;;5.20;99.90;;;;;;5067824;28;20757;-87
2023/01/11 01:53:53;;;;;;;9.57;4.03;;;5.10;99.90;;;;;;5069843;28;20381;-87
2023/01/11 01:56:27;;;;;;;12.25;3.90;;;5.10;99.90;;;;;;5101962;28;20378;-85
2023/01/11 01:59:06;;;;;;;13.00;4.45;;;5.10;99.90;;;;;;5068483;28;20376;-88
2023/01/11 02:01:47;;;;;;;10.80;4.15;;;5.10;99.90;;;;;;5074342;28;20444;-87
2023/01/11 02:04:18;;;;;;;13.40;4.60;;;5.20;99.90;;;;;;5089884;28;20399;-84
2023/01/11 02:06:44;;;;;;;10.57;3.95;;;5.10;99.90;;;;;;5091556;28;20416;-87
2023/01/11 02:09:45;;;;;;;8.00;4.13;;;5.10;99.90;;;;;;5096531;28;20387;-84
2023/01/11 02:12:12;;;;;;;13.27;4.38;;;5.20;99.90;;;;;;5056342;28;20372;-84
2023/01/11 02:14:40;;;;;;;11.25;4.43;;;5.20;99.90;;;;;;5065924;28;20389;-83
2023/01/11 02:17:06;;;;;;;9.23;3.70;;;5.20;99.90;;;;;;5071530;28;20382;-87
2023/01/11 02:19:44;;;;;;;11.70;3.67;;;5.30;99.90;;;;;;5079160;28;20384;-88
2023/01/11 02:22:13;;;;;;;14.30;4.75;;;5.30;99.90;;;;;;5082538;28;20392;-85
2023/01/11 02:24:55;;;;;;;9.70;4.00;;;5.20;99.90;;;;;;5077932;28;20834;-88
2023/01/11 02:27:46;;;;;;;9.30;3.63;;;5.20;99.90;;;;;;5057317;28;20382;-85
2023/01/11 02:30:31;;;;;;;8.65;3.80;;;5.20;99.90;;;;;;5069470;28;20453;-84
2023/01/11 02:33:45;;;;;;;10.97;3.87;;;5.20;99.90;;;;;;5049441;28;20471;-88
2023/01/11 02:36:17;;;;;;;8.93;3.80;;;5.20;99.90;;;;;;5053682;28;20386;-86
2023/01/11 02:38:53;;;;;;;9.23;3.70;;;5.30;99.90;;;;;;5069132;28;20393;-86
2023/01/11 02:47:24;;;;;;;7.88;3.65;;;5.50;99.90;;;;;;5068699;28;20451;-88
2023/01/11 02:50:00;;;;;;;10.57;3.50;;;5.60;99.90;;;;;;5067600;28;20745;-86
2023/01/11 02:52:35;;;;;;;11.15;3.65;;;5.60;99.90;;;;;;5069514;28;20509;-84
2023/01/11 02:55:02;;;;;;;10.05;3.40;;;5.80;99.90;;;;;;5342022;22;20472;-85
2023/01/11 02:57:30;;;;;;;9.02;3.17;;;5.80;99.90;;;;;;5006431;28;20461;-85
2023/01/11 02:59:58;;;;;;;8.98;3.42;;;5.80;99.90;;;;;;4992286;28;20416;-83
2023/01/11 03:02:24;;;;;;;9.95;3.35;;;5.80;99.90;;;;;;5011220;28;20379;-82
2023/01/11 03:04:49;;;;;;;8.90;3.57;;;5.80;99.90;;;;;;5001345;28;20502;-84
2023/01/11 03:07:36;;;;;;;7.87;3.17;;;5.90;99.90;;;;;;5020277;28;20394;-84
2023/01/11 03:10:29;;;;;;;9.88;3.50;;;5.90;99.90;;;;;;5020299;28;20377;-87
2023/01/11 03:13:18;;;;;;;8.80;3.50;;;5.90;99.90;;;;;;5016303;28;20864;-85
2023/01/11 03:16:07;;;;;;;7.25;3.30;;;5.90;99.90;;;;;;4993893;28;20383;-89
2023/01/11 03:18:51;;;;;;;6.90;3.17;;;5.90;99.90;;;;;;4976547;28;20381;-85
2023/01/11 03:21:39;;;;;;;7.32;3.10;;;5.90;99.90;;;;;;4976630;28;20887;-87
2023/01/11 03:24:24;;;;;;;10.73;3.25;;;6.00;99.90;;;;;;4976715;28;20415;-89
2023/01/11 03:27:08;;;;;;;9.98;3.50;;;5.90;99.90;;;;;;5006801;28;20383;-86
2023/01/11 03:29:49;;;;;;;9.98;3.22;;;5.90;99.90;;;;;;4992888;28;20482;-83
2023/01/11 03:32:24;;;;;;;9.35;3.35;;;6.00;99.90;;;;;;5027510;28;20411;-86
2023/01/11 03:35:01;;;;;;;7.05;3.28;;;6.00;99.90;;;;;;4987330;28;20496;-85
2023/01/11 03:37:43;;;;;;;8.88;3.15;;;6.10;99.90;;;;;;4971869;28;20447;-85
2023/01/11 03:40:24;;;;;;;9.50;3.08;;;6.10;99.90;;;;;;4966720;28;20425;-87
2023/01/11 03:43:10;;;;;;;6.63;2.80;;;6.10;99.90;;;;;;4968905;28;20526;-86
2023/01/11 03:45:51;;;;;;;8.88;3.47;;;6.10;99.90;;;;;;4975601;28;20426;-84
2023/01/11 03:48:26;;;;;;;6.32;2.80;;;6.20;99.90;;;;;;4982411;28;20531;-87
2023/01/11 03:50:54;;;;;;;7.17;3.20;;;6.20;99.90;;;;;;4988969;28;20403;-84
2023/01/11 03:53:22;;;;;;;6.87;2.60;;;6.20;99.90;;;;;;4987982;28;20395;-83
2023/01/11 03:55:54;;;;;;;7.28;3.00;;;6.20;99.90;;;;;;4992581;28;20481;-86
2023/01/11 03:58:20;;;;;;;9.57;2.95;;;6.20;99.90;;;;;;5002910;28;20727;-84
2023/01/11 04:00:47;;;;;;;8.38;2.63;;;6.20;99.90;;;;;;4993534;28;20414;-87
2023/01/11 04:03:13;;;;;;;7.25;2.72;;;6.20;99.90;;;;;;5003842;28;20420;-85
2023/01/11 04:05:42;;;;;;;6.80;2.80;;;6.20;99.90;;;;;;4994086;28;20415;-86
2023/01/11 04:08:10;;;;;;;7.03;2.63;;;6.20;99.90;;;;;;4991115;28;20925;-82
2023/01/11 04:10:36;;;;;;;6.40;2.53;;;6.20;99.90;;;;;;5009742;28;20394;-87
2023/01/11 04:13:03;;;;;;;8.20;2.53;;;6.30;99.90;;;;;;5010039;28;20428;-84
2023/01/11 04:15:33;;;;;;;8.43;3.00;;;6.30;99.90;;;;;;4994915;28;20758;-87
2023/01/11 04:18:04;;;;;;;5.38;2.60;;;6.30;99.90;;;;;;4991391;28;20480;-85
2023/01/11 04:20:37;;;;;;;5.78;2.70;;;6.20;99.90;;;;;;4994066;28;20379;-85
2023/01/11 04:23:04;;;;;;;8.43;2.80;;;6.30;99.90;;;;;;5002257;28;20431;-87
2023/01/11 04:25:30;;;;;;;8.52;2.95;;;6.40;99.90;;;;;;4991844;28;20412;-85
2023/01/11 04:27:56;;;;;;;8.05;2.60;;;6.30;99.90;;;;;;5004804;28;20497;-86
2023/01/11 04:30:22;;;;;;;6.13;2.72;;;6.30;99.90;;;;;;4991927;28;20491;-88
2023/01/11 04:32:48;;;;;;;7.65;3.10;;;6.40;99.90;;;;;;4997774;28;20495;-87
2023/01/11 04:35:14;;;;;;;5.63;2.22;;;6.30;99.90;;;;;;4987532;28;20418;-86
2023/01/11 04:37:40;;;;;;;7.00;3.15;;;6.30;99.90;;;;;;5006637;28;20402;-86
2023/01/11 04:40:06;;;;;;;4.80;2.28;;;6.40;99.90;;;;;;4987577;28;20549;-85
2023/01/11 04:42:32;;;;;;;6.15;2.50;;;6.40;99.90;;;;;;4999980;28;20980;-87
2023/01/11 04:44:58;;;;;;;6.63;2.60;;;6.40;99.90;;;;;;4989524;28;20534;-88
2023/01/11 04:47:24;;;;;;;7.95;2.42;;;6.40;99.90;;;;;;4992399;28;20402;-85
2023/01/11 04:49:50;;;;;;;5.15;2.28;;;6.50;99.90;;;;;;5010343;28;20441;-83
2023/01/11 04:52:19;;;;;;;4.07;2.30;;;6.40;99.90;;;;;;5010940;28;20394;-87
2023/01/11 04:54:46;;;;;;;6.97;2.97;;;6.50;99.90;;;;;;5010672;28;20429;-86
2023/01/11 04:57:14;;;;;;;5.60;2.60;;;6.50;99.90;;;;;;5010447;28;20422;-84
2023/01/11 04:59:40;;;;;;;5.63;2.78;;;6.40;99.90;;;;;;5010951;28;20530;-85
2023/01/11 05:02:06;;;;;;;6.05;2.63;;;6.40;99.90;;;;;;4993411;28;20434;-87
2023/01/11 05:04:32;;;;;;;5.22;2.33;;;6.60;99.90;;;;;;4993604;28;20418;-84
2023/01/11 05:06:57;;;;;;;6.72;2.70;;;6.50;99.90;;;;;;5009850;28;20401;-86
2023/01/11 05:09:23;;;;;;;4.37;2.30;;;6.50;99.90;;;;;;5011481;28;20722;-84
2023/01/11 05:11:49;;;;;;;3.77;2.10;;;6.50;99.90;;;;;;4992082;28;20458;-86
2023/01/11 05:14:16;;;;;;;8.63;2.20;;;6.60;99.90;;;;;;5010801;28;20387;-84
2023/01/11 05:16:42;;;;;;;8.43;2.40;;;6.60;99.90;;;;;;5010077;28;20387;-86
2023/01/11 05:19:10;;;;;;;4.93;1.80;;;6.60;99.90;;;;;;4992932;28;20387;-84
2023/01/11 05:21:38;;;;;;;5.65;2.25;;;6.70;99.90;;;;;;4993166;28;20423;-85
2023/01/11 05:24:05;;;;;;;5.32;2.05;;;6.70;99.90;;;;;;5011613;28;20399;-85
2023/01/11 05:26:37;;;;;;;7.28;2.50;;;6.60;99.90;;;;;;5003917;28;20425;-84
2023/01/11 05:29:05;;;;;;;6.23;2.13;;;6.60;99.90;;;;;;5012890;28;20377;-87
2023/01/11 05:31:33;;;;;;;6.13;2.30;;;6.70;99.90;;;;;;5012962;28;20435;-87
2023/01/11 05:34:00;;;;;;;6.43;2.23;;;6.70;99.90;;;;;;5031269;28;20404;-83
2023/01/11 05:36:26;;;;;;;4.47;2.17;;;6.70;99.90;;;;;;5014804;28;20381;-82
2023/01/11 05:38:54;;;;;;;6.22;2.03;;;6.70;99.90;;;;;;5033174;28;20421;-84
2023/01/11 05:41:22;;;;;;;5.63;2.03;;;6.60;99.90;;;;;;5023902;28;20401;-83
2023/01/11 05:46:34;;;;;;;5.68;2.22;;;6.70;99.90;;;;;;5009037;28;20775;-85
2023/01/11 05:49:00;;;;;;;6.32;2.17;;;6.70;99.90;;;;;;5009302;28;20874;-87
2023/01/11 05:51:29;;;;;;;5.13;2.17;;;6.70;99.90;;;;;;5008272;28;20407;-85
2023/01/11 05:53:55;;;;;;;5.22;2.35;;;6.70;99.90;;;;;;4991771;28;20449;-86
2023/01/11 05:56:22;;;;;;;7.43;2.30;;;6.70;99.90;;;;;;4991792;28;20390;-88
2023/01/11 05:58:49;;;;;;;5.35;2.40;;;6.70;99.90;;;;;;5009357;28;20383;-86
2023/01/11 06:01:15;;;;;;;4.85;2.45;;;6.70;99.90;;;;;;4992785;28;20399;-85
2023/01/11 06:03:41;;;;;;;5.80;2.70;;;6.70;99.90;;;;;;4991800;28;20467;-87
2023/01/11 06:06:07;;;;;;;5.87;2.40;;;6.70;99.90;;;;;;5010027;28;20738;-89
2023/01/11 06:08:32;;;;;;;5.93;2.05;;;6.70;99.90;;;;;;4992078;28;20453;-87
2023/01/11 06:10:58;;;;;;;5.57;2.53;;;6.80;99.90;;;;;;5009648;28;20474;-85
2023/01/11 06:13:27;;;;;;;6.07;2.17;;;6.70;99.90;;;;;;5009748;28;20407;-88
2023/01/11 06:16:03;;;;;;;4.60;1.95;;;6.80;99.90;;;;;;5009911;28;20453;-85
2023/01/11 06:18:32;;;;;;;4.55;2.00;;;6.70;99.90;;;;;;5010278;28;20381;-86
2023/01/11 06:20:57;;;;;;;5.83;2.13;;;6.70;99.90;;;;;;5012438;28;20373;-86
2023/01/11 06:23:24;;;;;;;4.73;2.20;;;6.60;99.90;;;;;;5012015;28;20783;-87
2023/01/11 06:25:50;;;;;;;4.70;2.15;;;6.60;99.90;;;;;;5028806;28;20489;-86
2023/01/11 06:28:16;;;;;;;6.43;2.40;;;6.50;99.90;;;;;;5028632;28;20809;-87
2023/01/11 06:30:42;;;;;;;5.23;2.17;;;6.60;99.90;;;;;;5028727;28;20381;-85
2023/01/11 06:33:08;;;;;;;4.73;2.10;;;6.50;99.90;;;;;;5028396;28;20378;-85
2023/01/11 06:35:38;;;;;;;5.70;2.00;;;6.60;99.90;;;;;;5028848;28;20381;-87
2023/01/11 06:38:12;;;;;;;7.05;2.30;;;6.40;99.90;;;;;;5028552;28;20392;-86
2023/01/11 06:40:39;;;;;;;4.40;1.70;;;6.50;99.90;;;;;;5023132;28;20457;-86
2023/01/11 06:43:06;;;;;;;4.72;2.30;;;6.50;99.90;;;;;;5009430;28;20377;-84
2023/01/11 06:45:32;;;;;;;5.30;2.00;;;6.50;99.90;;;;;;5009710;28;20466;-85
2023/01/11 06:47:58;;;;;;;6.20;2.28;;;6.60;99.90;;;;;;5012662;28;20909;-87
2023/01/11 06:50:24;;;;;;;3.58;1.90;;;6.70;99.90;;;;;;4994118;28;20399;-87
2023/01/11 06:53:00;;;;;;;4.43;2.10;;;6.80;99.90;;;;;;5002777;28;20962;-85
2023/01/11 06:55:27;;;;;;;5.65;2.33;;;6.90;99.90;;;;;;4995509;28;21106;-86
2023/01/11 06:57:53;;;;;;;5.15;2.33;;;6.90;99.90;;;;;;5011546;28;20754;-84
2023/01/11 07:00:20;;;;;;;4.03;1.97;;;6.90;99.90;;;;;;4993457;28;20402;-83
2023/01/11 07:02:46;;;;;;;5.28;1.92;;;7.00;99.90;;;;;;5012449;28;20387;-85
2023/01/11 07:05:13;;;;;;;5.95;2.17;;;7.00;99.90;;;;;;5013334;28;20403;-88
2023/01/11 07:07:39;;;;;;;6.25;1.80;;;7.10;99.90;;;;;;5013818;28;20379;-85
2023/01/11 07:10:08;;;;;;;5.55;2.10;;;7.10;99.90;;;;;;4993989;28;20892;-86
2023/01/11 07:12:34;;;;;;;5.28;2.00;;;7.10;99.90;;;;;;5012739;28;20386;-84
2023/01/11 07:15:04;;;;;;;4.67;2.17;;;7.10;99.90;;;;;;5012416;28;20470;-86
2023/01/11 07:17:31;;;;;;;4.77;1.70;;;7.10;99.90;;;;;;4994815;28;20394;-86
2023/01/11 07:19:57;;;;;;;4.97;1.80;;;7.10;99.90;;;;;;5012129;28;20391;-86
2023/01/11 07:22:23;;;;;;;3.80;1.80;;;7.10;99.90;;;;;;4994403;28;20395;-83
2023/01/11 07:24:49;;;;;;;4.67;2.10;;;7.00;99.90;;;;;;5012546;28;20406;-85
2023/01/11 07:27:16;;;;;;;6.15;2.20;;;7.10;99.90;;;;;;4993251;28;20391;-84
2023/01/11 07:29:41;;;;;;;3.67;2.03;;;7.20;99.90;;;;;;4994276;28;20386;-85
2023/01/11 07:32:09;;;;;;;4.53;2.10;;;7.20;99.90;;;;;;5012718;28;20383;-86
2023/01/11 07:34:36;;;;;;;5.63;2.20;;;7.20;99.90;;;;;;5013999;28;20380;-84
2023/01/11 07:37:02;;;;;;;4.18;2.20;;;7.20;99.90;;;;;;4998920;28;20868;-84
2023/01/11 07:39:27;;;;;;;6.18;2.33;;;7.20;99.90;;;;;;5017494;28;20387;-84
2023/01/11 07:44:38;;;;;;;5.22;2.08;;;7.30;99.90;;;;;;5013755;28;20555;-85
2023/01/11 07:47:03;;;;;;;4.63;2.05;;;7.40;99.90;;;;;;5013890;28;20390;-85
2023/01/11 07:49:29;;;;;;;6.80;2.37;;;7.30;99.90;;;;;;5012039;28;20387;-87
2023/01/11 07:51:55;;;;;;;6.10;2.47;;;7.20;99.90;;;;;;4996470;28;20889;-84
2023/01/11 07:54:21;;;;;;;5.63;2.37;;;7.10;99.90;;;;;;4995618;28;20391;-81
2023/01/11 07:56:47;;;;;;;5.60;2.50;;;7.00;99.90;;;;;;5005507;28;20451;-86
2023/01/11 07:59:13;;;;;;;3.53;2.30;;;7.00;99.90;;;;;;4982822;28;20927;-84
2023/01/11 08:01:38;;;;;;;5.50;2.70;;;6.90;99.90;;;;;;5011772;28;20417;-85
2023/01/11 08:04:04;;;;;;;4.87;3.03;;;6.90;99.90;;;;;;4994030;28;20750;-84
2023/01/11 08:06:30;;;;;;;4.82;2.65;;;6.80;99.90;;;;;;4993694;28;20379;-85
2023/01/11 08:08:55;;;;;;;6.20;2.90;;;6.70;99.90;;;;;;4994013;28;20375;-83
2023/01/11 08:16:54;;;;;;;5.38;3.40;;;6.60;99.90;;;;;;5032882;28;20397;-84
2023/01/11 08:19:19;;;;;;;5.90;3.20;;;6.50;99.90;;;;;;5038915;28;20393;-85
2023/01/11 08:21:45;;;;;;;6.18;3.35;;;6.60;99.90;;;;;;5014189;28;20472;-85
2023/01/11 08:24:11;;;;;;;5.07;3.17;;;6.50;99.90;;;;;;5013933;28;20492;-86
2023/01/11 08:26:36;;;;;;;5.13;3.30;;;6.50;99.90;;;;;;5030912;28;20381;-85
2023/01/11 08:29:02;;;;;;;4.53;3.38;;;6.50;99.90;;;;;;5013114;28;20381;-86
2023/01/11 08:31:29;;;;;;;6.75;3.35;;;6.50;99.90;;;;;;5013700;28;20461;-86
2023/01/11 08:33:54;;;;;;;6.55;3.40;;;6.50;99.90;;;;;;5012591;28;20525;-86
2023/01/11 08:36:20;;;;;;;6.53;3.43;;;6.50;99.90;;;;;;5032161;28;20393;-85
2023/01/11 08:38:46;;;;;;;5.53;3.33;;;6.50;99.90;;;;;;5031437;28;20740;-85
2023/01/11 08:41:13;;;;;;;7.50;3.97;;;6.50;99.90;;;;;;5014493;28;20382;-85
2023/01/11 08:43:40;;;;;;;5.68;3.17;;;6.50;99.90;;;;;;5031501;28;20390;-87
2023/01/11 08:46:07;;;;;;;3.85;2.90;;;6.50;99.90;;;;;;5014023;28;20469;-85
2023/01/11 08:48:33;;;;;;;3.90;3.08;;;6.60;99.90;;;;;;5014471;28;20385;-83
2023/01/11 08:50:58;;;;;;;7.05;3.65;;;6.50;99.90;;;;;;5030108;28;20961;-85
2023/01/11 08:53:24;;;;;;;7.28;4.22;;;6.60;99.90;;;;;;5013344;28;20384;-86
2023/01/11 08:55:50;;;;;;;6.57;3.00;;;6.70;99.90;;;;;;5003427;28;20399;-85
2023/01/11 08:58:16;;;;;;;5.60;3.38;;;6.60;99.90;;;;;;4994289;28;20965;-85
2023/01/11 09:00:42;;;;;;;8.70;3.58;;;6.70;99.90;;;;;;4994505;28;20466;-84
2023/01/11 09:03:10;;;;;;;4.75;3.13;;;6.60;99.90;;;;;;4993688;28;20451;-86
2023/01/11 09:05:37;;;;;;;4.68;3.00;;;6.70;99.90;;;;;;5001897;28;20804;-84
2023/01/11 09:08:04;;;;;;;6.78;3.83;;;6.70;99.90;;;;;;5006177;28;20406;-85
2023/01/11 09:10:30;;;;;;;4.85;3.10;;;6.70;99.90;;;;;;5009853;28;20384;-84
2023/01/11 09:12:56;;;;;;;6.28;3.30;;;6.70;99.90;;;;;;4991283;28;20457;-84
2023/01/11 09:15:23;;;;;;;5.47;3.40;;;6.70;99.90;;;;;;4990221;28;20858;-84
2023/01/11 09:17:49;;;;;;;5.47;3.27;;;6.70;99.90;;;;;;5000143;28;20497;-84
2023/01/11 09:20:15;;;;;;;5.55;3.47;;;6.80;99.90;;;;;;5011215;28;20993;-84
2023/01/11 09:22:46;;;;;;;5.60;3.67;;;6.80;99.90;;;;;;5010275;28;20411;-85
2023/01/11 09:25:12;;;;;;;6.07;3.70;;;6.80;99.90;;;;;;5011447;28;20472;-85
2023/01/11 09:27:42;;;;;;;5.55;3.72;;;6.80;99.90;;;;;;4993456;28;20939;-84
2023/01/11 09:30:09;;;;;;;6.23;3.50;;;6.90;99.90;;;;;;5011515;28;20387;-85
2023/01/11 09:32:35;;;;;;;4.50;3.42;;;6.90;99.90;;;;;;4992933;28;20478;-85
2023/01/11 09:35:03;;;;;;;5.10;3.43;;;6.90;99.90;;;;;;5010653;28;20375;-85
2023/01/11 09:37:29;;;;;;;6.15;3.67;;;7.00;99.90;;;;;;4992956;28;20391;-85
2023/01/11 09:39:58;;;;;;;6.07;3.97;;;7.00;99.90;;;;;;5011328;28;20430;-86
2023/01/11 09:42:31;;;;;;;6.50;3.75;;;7.00;99.90;;;;;;5010215;28;20379;-85
2023/01/11 09:45:17;;;;;;;6.10;3.50;;;7.00;99.90;;;;;;5010479;28;20471;-85
2023/01/11 09:48:02;;;;;;;5.20;3.80;;;7.10;99.90;;;;;;4993026;28;20390;-84
2023/01/11 09:50:32;;;;;;;7.20;3.55;;;7.10;99.90;;;;;;4992720;28;20445;-86
2023/01/11 09:53:07;;;;;;;6.27;3.53;;;7.10;99.90;;;;;;4993354;28;20392;-85
2023/01/11 09:55:45;;;;;;;6.03;4.20;;;7.10;99.90;;;;;;4991419;28;20395;-85
2023/01/11 09:58:31;;;;;;;5.80;3.90;;;7.20;99.90;;;;;;4992700;28;20887;-85
2023/01/11 10:01:01;;;;;;;6.70;3.53;;;7.20;99.90;;;;;;4992908;28;20385;-86
2023/01/11 10:03:38;;;;;;;6.32;4.00;;;7.20;99.90;;;;;;4992905;28;20395;-85
2023/01/11 10:06:27;;;;;;;5.90;3.75;;;7.20;99.90;;;;;;4993026;28;20442;-86
2023/01/11 10:09:20;;;;;;;7.18;3.65;;;7.20;99.90;;;;;;4995029;28;20379;-85
2023/01/11 10:12:00;;;;;;;5.85;3.30;;;7.30;99.90;;;;;;4986107;28;20398;-86
2023/01/11 10:14:58;;;;;;;5.55;3.38;;;7.30;99.90;;;;;;4993052;28;20381;-85
2023/01/11 10:17:48;;;;;;;5.03;3.42;;;7.30;99.90;;;;;;4991636;28;20387;-85
2023/01/11 10:20:23;;;;;;;6.20;3.30;;;7.40;99.90;;;;;;5009351;28;20896;-86
2023/01/11 10:22:56;;;;;;;4.35;3.25;;;7.50;99.90;;;;;;5002078;28;20428;-85
2023/01/11 10:25:33;;;;;;;4.82;3.20;;;7.60;99.90;;;;;;5005347;28;20497;-85
2023/01/11 10:28:03;;;;;;;5.97;3.20;;;7.70;99.90;;;;;;5011351;28;20441;-85
2023/01/11 10:36:40;;;;;;;4.03;2.95;;;7.80;99.90;;;;;;5012299;28;20379;-85
2023/01/11 10:41:56;;;;;;;3.80;3.17;;;7.90;99.90;;;;;;5012807;28;20386;-84
2023/01/11 10:44:52;;;;;;;5.03;3.22;;;7.90;99.90;;;;;;5012521;28;20754;-85
2023/01/11 10:47:22;;;;;;;5.95;3.50;;;7.90;99.90;;;;;;5011395;28;20383;-84
2023/01/11 10:49:58;;;;;;;4.20;2.75;;;7.80;99.90;;;;;;5012440;28;20482;-83
2023/01/11 10:52:28;;;;;;;3.63;3.10;;;7.90;99.90;;;;;;5012558;28;20466;-83
2023/01/11 10:54:56;;;;;;;4.00;2.90;;;8.00;99.90;;;;;;4994788;28;20442;-84
2023/01/11 10:57:40;;;;;;;7.05;3.10;;;8.00;99.90;;;;;;4993662;28;20410;-84
2023/01/11 11:00:18;;;;;;;3.92;2.50;;;8.00;99.90;;;;;;5013263;28;20402;-84
2023/01/11 11:03:20;;;;;;;3.85;2.50;;;8.20;99.90;;;;;;4995618;28;20407;-85
2023/01/11 11:06:04;;;;;;;3.95;2.45;;;8.10;99.90;;;;;;5014651;28;20399;-83
2023/01/11 11:08:50;;;;;;;3.90;2.50;;;8.10;99.90;;;;;;5014450;28;20381;-84
2023/01/11 11:11:34;;;;;;;3.95;2.58;;;8.20;99.90;;;;;;5012105;28;20474;-84
2023/01/11 11:14:19;;;;;;;3.22;2.33;;;8.20;99.90;;;;;;4992878;28;20417;-85
2023/01/11 11:17:24;;;;;;;4.20;2.70;;;8.30;99.90;;;;;;4975084;28;20392;-83
2023/01/11 11:19:50;;;;;;;3.70;2.30;;;8.30;99.90;;;;;;4980891;28;20411;-85
2023/01/11 11:22:19;;;;;;;4.10;2.97;;;8.40;99.90;;;;;;5018514;28;20478;-83
2023/01/11 11:24:50;;;;;;;3.53;2.78;;;8.30;99.90;;;;;;5000152;28;21280;-85
2023/01/11 11:27:49;;;;;;;3.42;2.40;;;8.30;99.90;;;;;;4999393;28;20415;-84
2023/01/11 11:30:27;;;;;;;4.30;2.30;;;8.30;99.90;;;;;;4996732;28;20482;-85
2023/01/11 11:33:20;;;;;;;3.33;2.30;;;8.40;99.90;;;;;;5014777;28;20729;-84
2023/01/11 11:35:58;;;;;;;2.80;2.13;;;8.30;99.90;;;;;;5008914;28;20468;-85
2023/01/11 11:38:25;;;;;;;3.53;2.25;;;8.30;99.90;;;;;;4992204;28;20411;-84
2023/01/11 11:40:58;;;;;;;4.25;2.40;;;8.30;99.90;;;;;;4996932;28;20403;-85
2023/01/11 11:43:25;;;;;;;4.25;2.72;;;8.30;99.90;;;;;;4996965;28;20381;-85
2023/01/11 11:45:54;;;;;;;4.30;2.80;;;8.20;99.90;;;;;;5000089;28;20759;-85
2023/01/11 11:48:20;;;;;;;2.42;2.22;;;8.20;99.90;;;;;;4997328;28;20958;-83
2023/01/11 11:50:47;;;;;;;3.57;2.60;;;8.30;99.90;;;;;;5006766;28;20474;-85
2023/01/11 11:53:41;;;;;;;3.90;2.53;;;8.30;99.90;;;;;;4995672;28;20455;-84
2023/01/11 11:56:27;;;;;;;3.53;3.00;;;8.30;99.90;;;;;;4992179;28;20467;-83
2023/01/11 11:58:54;;;;;;;3.97;2.75;;;8.30;99.90;;;;;;5014342;28;20406;-84
2023/01/11 12:01:24;;;;;;;4.00;2.92;;;8.40;99.90;;;;;;4998434;28;20413;-85
2023/01/11 12:03:53;;;;;;;5.40;2.80;;;8.50;99.90;;;;;;5013030;28;20375;-84
2023/01/11 12:06:27;;;;;;;4.18;2.78;;;8.40;99.90;;;;;;5013371;28;20411;-84
2023/01/11 12:08:59;;;;;;;3.03;2.60;;;8.40;99.90;;;;;;5011904;28;20405;-85
2023/01/11 12:11:33;;;;;;;3.10;2.60;;;8.40;99.90;;;;;;5013618;28;20390;-84
2023/01/11 12:14:02;;;;;;;2.97;2.65;;;8.50;99.90;;;;;;4995314;28;20396;-85
2023/01/11 12:16:37;;;;;;;3.35;2.47;;;8.50;99.90;;;;;;5013435;28;20379;-84
2023/01/11 12:19:23;;;;;;;5.45;2.65;;;8.60;99.90;;;;;;4997896;28;20388;-84
2023/01/11 12:21:50;;;;;;;2.58;2.20;;;8.60;99.90;;;;;;4998829;28;20433;-84
2023/01/11 12:24:18;;;;;;;3.10;2.40;;;8.70;99.90;;;;;;4998901;28;21585;-84
2023/01/11 12:27:15;;;;;;;3.00;2.30;;;8.60;99.90;;;;;;4996652;28;20384;-84
2023/01/11 12:29:59;;;;;;;4.43;2.47;;;8.60;99.90;;;;;;5011779;28;20418;-84
2023/01/11 12:32:43;;;;;;;3.08;2.38;;;8.60;99.90;;;;;;5014441;28;20451;-83
2023/01/11 12:35:35;;;;;;;3.08;2.35;;;8.60;99.90;;;;;;5010239;28;20834;-83
2023/01/11 12:38:25;;;;;;;3.15;2.13;;;8.70;99.90;;;;;;5008626;28;20383;-82
2023/01/11 12:41:14;;;;;;;2.75;2.30;;;8.60;99.90;;;;;;5008634;28;20455;-82
2023/01/11 12:43:49;;;;;;;4.30;2.50;;;8.60;99.90;;;;;;5007688;28;20407;-84
2023/01/11 12:46:33;;;;;;;4.07;2.60;;;8.60;99.90;;;;;;5008117;28;20418;-83
2023/01/11 12:49:20;;;;;;;2.77;2.20;;;8.60;99.90;;;;;;5008809;28;20390;-83
2023/01/11 12:52:15;;;;;;;2.67;2.22;;;8.60;99.90;;;;;;5010648;28;20515;-82
2023/01/11 12:54:52;;;;;;;2.95;2.35;;;8.70;99.90;;;;;;4994581;28;20379;-83
2023/01/11 12:57:59;;;;;;;3.10;2.40;;;8.60;99.90;;;;;;5014377;28;20411;-83
2023/01/11 13:00:44;;;;;;;3.17;2.73;;;8.60;99.90;;;;;;4997509;28;20419;-83
2023/01/11 13:03:49;;;;;;;3.05;2.72;;;8.60;99.90;;;;;;4999048;28;20474;-84
2023/01/11 13:06:39;;;;;;;3.50;2.63;;;8.70;99.90;;;;;;5017973;28;20489;-84
2023/01/11 13:09:35;;;;;;;4.55;2.95;;;8.60;99.90;;;;;;5018462;28;20390;-83
2023/01/11 13:12:04;;;;;;;3.30;2.92;;;8.70;99.90;;;;;;5002077;28;20412;-83
2023/01/11 13:14:44;;;;;;;3.55;2.80;;;8.70;99.90;;;;;;5001923;28;20889;-82
2023/01/11 13:17:12;;;;;;;2.88;2.67;;;8.70;99.90;;;;;;5011516;28;20407;-83
2023/01/11 13:19:51;;;;;;;3.13;2.70;;;8.70;99.90;;;;;;5012266;28;20383;-84
2023/01/11 13:22:21;;;;;;;4.05;2.80;;;8.60;99.90;;;;;;5015238;28;20410;-84
2023/01/11 13:28:28;;;;;;;3.03;2.72;;;8.60;99.90;;;;;;5012988;28;20411;-85
2023/01/11 13:30:54;;;;;;;3.53;2.63;;;8.70;99.90;;;;;;5015774;28;20383;-85
2023/01/11 13:33:23;;;;;;;3.92;2.50;;;8.60;99.90;;;;;;5002665;28;20418;-84
2023/01/11 13:35:55;;;;;;;3.10;2.70;;;8.60;99.90;;;;;;5012211;28;20418;-84
2023/01/11 13:38:31;;;;;;;3.53;2.58;;;8.70;99.90;;;;;;5002274;28;20427;-85
2023/01/11 13:41:09;;;;;;;4.60;2.73;;;8.70;99.90;;;;;;5012650;28;20403;-85
2023/01/11 13:43:42;;;;;;;4.40;3.20;;;8.60;99.90;;;;;;4989857;28;20475;-85
2023/01/11 13:46:45;;;;;;;2.85;2.65;;;8.60;99.90;;;;;;4993056;28;20410;-85
2023/01/11 13:49:35;;;;;;;4.20;2.70;;;8.70;99.90;;;;;;4991968;28;20388;-88
2023/01/11 13:52:18;;;;;;;3.47;2.87;;;8.70;99.90;;;;;;4991128;28;20995;-84
2023/01/11 13:54:54;;;;;;;3.65;2.72;;;8.70;99.90;;;;;;4995292;28;20747;-85
2023/01/11 13:57:39;;;;;;;3.42;2.90;;;8.70;99.90;;;;;;4987879;28;20829;-86
2023/01/11 14:00:27;;;;;;;3.30;3.00;;;8.60;99.90;;;;;;5022827;28;20379;-84